Main page
METAR-TAF:

METAR-TAF

Airports :

Bahawalpur Airport

Bahawalpur, Pakistan

latitude: 29-20-53N, longitude: 71-43-04E, elevation: 119 m

METAR: missing

Time: 10:20 (05:20 UTC)

Forecast

The report was made 7 hours and 35 minutes ago, at 21:45 UTC
Forecast valid from 20 at 00 UTC to 20 at 18 UTC
Wind 5 kt from the Northeast
Visibility: 4000 m
Few clouds at a height of 12000 ft
smoke
Probability %
between 30 and UTC
Temporary
from 20 at 01 UTC to 20 at 04 UTC
Wind kt from the North
Visibility: 2000 m
smoke
From UTC
Wind 10 kt from the Southeast
Visibility: 5000 m
Scattered clouds at a height of 12000 ft
haze

TAF: OPBW 192145Z 2000/2018 05005KT 4000 FU FEW120 TN20/2001Z TX34/2010Z PROB 30 TEMPO 2001/2004 00000KT 2000 FU NSC FM 200700 13010KT 5000 HZ SCT120

Weather observations and forecasts of more than 4000 airports (METAR and TAF reports).

The available stations are represented by yellow and red dots on the map.

Hover mouse over dot to see the name of the station.

Then click to see weather observations and forecasts.

To change the map : click on the green buttons with a black cross to zoom in, on the green button with a dash to zoom out, or on the green arrows for adjacent maps.


METAR-TAF: